createdAt,value
2022-12-08T00:01:26.919Z,1.20
2022-12-08T00:03:54.507Z,1.20
2022-12-08T00:06:43.011Z,1.20
2022-12-08T00:09:23.073Z,1.30
2022-12-08T00:11:50.768Z,1.50
2022-12-08T00:14:17.757Z,1.50
2022-12-08T00:16:45.054Z,1.60
2022-12-08T00:19:11.943Z,1.70
2022-12-08T00:21:38.946Z,1.60
2022-12-08T00:24:08.467Z,1.30
2022-12-08T00:26:36.675Z,1.30
2022-12-08T00:29:04.297Z,1.30
2022-12-08T00:31:31.594Z,1.30
2022-12-08T00:33:59.257Z,1.50
2022-12-08T00:36:26.462Z,1.50
2022-12-08T00:38:53.433Z,1.50
2022-12-08T00:41:43.946Z,1.30
2022-12-08T00:44:12.237Z,1.30
2022-12-08T00:46:39.236Z,1.20
2022-12-08T00:49:06.456Z,1.10
2022-12-08T00:51:33.880Z,0.90
2022-12-08T00:54:00.771Z,0.80
2022-12-08T00:56:28.000Z,0.80
2022-12-08T00:58:54.909Z,0.70
2022-12-08T01:01:22.354Z,0.70
2022-12-08T01:03:49.388Z,0.90
2022-12-08T01:06:16.612Z,0.70
2022-12-08T01:08:43.860Z,0.40
2022-12-08T01:11:13.858Z,0.10
2022-12-08T01:13:41.229Z,-0.10
2022-12-08T01:16:08.740Z,-0.10
2022-12-08T01:18:36.102Z,-0.20
2022-12-08T01:21:07.252Z,-0.20
2022-12-08T01:23:34.987Z,-0.20
2022-12-08T01:26:03.126Z,-0.20
2022-12-08T01:28:31.048Z,0.20
2022-12-08T01:30:58.605Z,0.60
2022-12-08T01:33:25.482Z,0.80
2022-12-08T01:35:52.918Z,1.20
2022-12-08T01:38:20.092Z,1.40
2022-12-08T01:40:47.089Z,1.60
2022-12-08T01:43:18.477Z,1.70
2022-12-08T01:45:45.551Z,1.80
2022-12-08T01:48:34.516Z,2.00
2022-12-08T01:51:05.207Z,2.00
2022-12-08T01:53:35.190Z,2.00
2022-12-08T01:56:25.094Z,2.00
2022-12-08T01:58:53.075Z,2.00
2022-12-08T02:01:20.263Z,1.80
2022-12-08T02:03:53.393Z,1.70
2022-12-08T02:06:22.963Z,1.40
2022-12-08T02:08:50.370Z,1.20
2022-12-08T02:11:17.252Z,1.10
2022-12-08T02:13:46.046Z,1.00
2022-12-08T02:16:22.716Z,0.90
2022-12-08T02:19:08.250Z,0.60
2022-12-08T02:21:57.109Z,0.60
2022-12-08T02:24:37.768Z,0.50
2022-12-08T02:27:13.824Z,0.70
2022-12-08T02:30:13.328Z,0.80
2022-12-08T02:32:46.024Z,1.00
2022-12-08T02:35:15.878Z,1.10
2022-12-08T02:37:54.498Z,1.20
2022-12-08T02:40:24.430Z,1.20
2022-12-08T02:42:51.357Z,1.40
2022-12-08T02:45:25.435Z,1.50
2022-12-08T02:47:52.599Z,1.60
2022-12-08T02:50:19.535Z,1.80
2022-12-08T02:52:47.585Z,1.90
2022-12-08T02:55:23.751Z,2.00
2022-12-08T02:58:06.290Z,2.00
2022-12-08T03:00:56.575Z,2.00
2022-12-08T03:03:23.797Z,2.00
2022-12-08T03:06:09.636Z,1.70
2022-12-08T03:08:48.945Z,1.60
2022-12-08T03:11:25.211Z,1.70
2022-12-08T03:13:53.395Z,1.70
2022-12-08T03:16:22.860Z,1.70
2022-12-08T03:18:52.912Z,1.60
2022-12-08T03:21:20.469Z,1.60
2022-12-08T03:23:48.972Z,1.70
2022-12-08T03:26:22.789Z,1.80
2022-12-08T03:28:49.929Z,1.90
2022-12-08T03:31:17.957Z,1.80
2022-12-08T03:33:45.858Z,1.80
2022-12-08T03:36:13.773Z,1.80
2022-12-08T03:38:41.985Z,1.80
2022-12-08T03:41:18.469Z,1.80
2022-12-08T03:43:49.469Z,1.50
2022-12-08T03:46:17.338Z,1.60
2022-12-08T03:48:44.288Z,1.70
2022-12-08T03:51:11.231Z,1.70
2022-12-08T03:53:38.712Z,1.80
2022-12-08T03:56:06.909Z,1.80
2022-12-08T03:58:37.443Z,1.80
2022-12-08T04:01:04.563Z,1.80
2022-12-08T04:03:31.492Z,1.60
2022-12-08T04:05:58.788Z,1.30
2022-12-08T04:08:25.824Z,1.10
2022-12-08T04:10:52.846Z,1.20
2022-12-08T04:13:19.819Z,1.20
2022-12-08T04:15:47.391Z,1.20
2022-12-08T04:18:14.723Z,1.40
2022-12-08T04:20:42.216Z,1.40
2022-12-08T04:23:12.022Z,1.50
2022-12-08T04:25:39.622Z,1.60
2022-12-08T04:28:07.022Z,1.50
2022-12-08T04:30:34.140Z,1.50
2022-12-08T04:33:01.145Z,1.70
2022-12-08T04:35:28.298Z,1.70
2022-12-08T04:37:55.306Z,1.80
2022-12-08T04:40:22.279Z,1.90
2022-12-08T04:42:49.254Z,1.80
2022-12-08T04:45:16.429Z,1.50
2022-12-08T04:47:43.389Z,1.20
2022-12-08T04:50:10.837Z,1.10
2022-12-08T04:52:37.787Z,1.20
2022-12-08T04:55:05.012Z,1.40
2022-12-08T04:57:32.232Z,1.50
2022-12-08T04:59:59.197Z,1.50
2022-12-08T05:02:26.223Z,1.50
2022-12-08T05:04:53.163Z,1.70
2022-12-08T05:07:20.086Z,1.80
2022-12-08T05:09:47.025Z,2.00
2022-12-08T05:12:13.972Z,2.10
2022-12-08T05:14:40.958Z,2.00
2022-12-08T05:17:09.905Z,1.90
2022-12-08T05:19:37.028Z,1.80
2022-12-08T05:22:04.071Z,1.70
2022-12-08T05:24:30.986Z,1.50
2022-12-08T05:26:57.878Z,1.30
2022-12-08T05:29:26.406Z,1.10
2022-12-08T05:31:53.422Z,1.00
2022-12-08T05:34:20.412Z,0.90
2022-12-08T05:36:47.413Z,0.60
2022-12-08T05:39:16.702Z,0.40
2022-12-08T05:41:43.763Z,0.30
2022-12-08T05:44:10.820Z,0.30
2022-12-08T05:46:37.758Z,0.20
2022-12-08T05:49:05.061Z,0.30
2022-12-08T05:51:32.019Z,0.30
2022-12-08T05:53:59.153Z,0.40
2022-12-08T05:56:26.507Z,0.50
2022-12-08T05:58:53.441Z,0.60
2022-12-08T06:01:26.408Z,0.80
2022-12-08T06:03:53.851Z,0.90
2022-12-08T06:06:21.188Z,1.00
2022-12-08T06:08:48.231Z,1.20
2022-12-08T06:11:19.230Z,1.30
2022-12-08T06:13:46.213Z,1.50
2022-12-08T06:16:13.167Z,1.40
2022-12-08T06:18:40.146Z,1.30
2022-12-08T06:21:08.367Z,1.20
2022-12-08T06:23:35.763Z,1.30
2022-12-08T06:26:03.638Z,1.40
2022-12-08T06:28:30.994Z,1.50
2022-12-08T06:30:58.235Z,1.60
2022-12-08T06:33:25.632Z,1.30
2022-12-08T06:35:52.769Z,1.20
2022-12-08T06:38:19.746Z,1.10
2022-12-08T06:40:52.944Z,1.10
2022-12-08T06:43:19.813Z,1.20
2022-12-08T06:45:46.952Z,1.40
2022-12-08T06:48:14.167Z,1.60
2022-12-08T06:50:41.167Z,1.60
2022-12-08T06:53:08.392Z,1.70
2022-12-08T06:58:22.242Z,1.40
2022-12-08T07:00:49.471Z,1.20
2022-12-08T07:03:16.519Z,1.20
2022-12-08T07:05:43.420Z,1.30
2022-12-08T07:08:10.454Z,1.50
2022-12-08T07:10:37.750Z,1.60
2022-12-08T07:13:04.983Z,1.70
2022-12-08T07:15:32.100Z,1.70
2022-12-08T07:18:00.224Z,1.80
2022-12-08T07:20:27.571Z,1.80
2022-12-08T07:22:54.576Z,2.00
2022-12-08T07:25:21.872Z,2.10
2022-12-08T07:27:51.512Z,2.20
2022-12-08T07:30:18.832Z,2.30
2022-12-08T07:32:45.895Z,2.30
2022-12-08T07:35:13.078Z,2.20
2022-12-08T07:37:40.407Z,2.00
2022-12-08T07:40:08.166Z,1.90
2022-12-08T07:42:35.343Z,1.70
2022-12-08T07:45:02.528Z,1.50
2022-12-08T07:47:29.402Z,1.20
2022-12-08T07:49:56.327Z,1.00
2022-12-08T07:52:23.540Z,1.20
2022-12-08T07:54:50.613Z,1.40
2022-12-08T07:57:19.579Z,1.70
2022-12-08T07:59:46.434Z,1.90
2022-12-08T08:02:26.040Z,1.90
2022-12-08T08:04:53.595Z,1.80
2022-12-08T08:07:20.734Z,1.80
2022-12-08T08:09:47.802Z,1.80
2022-12-08T08:12:31.804Z,1.70
2022-12-08T08:15:00.403Z,1.70
2022-12-08T08:17:28.234Z,1.90
2022-12-08T08:19:55.340Z,1.90
2022-12-08T08:22:22.272Z,2.10
2022-12-08T08:24:49.169Z,2.00
2022-12-08T08:27:16.104Z,2.10
2022-12-08T08:29:45.491Z,2.30
2022-12-08T08:32:12.389Z,2.50
2022-12-08T08:34:40.116Z,2.40
2022-12-08T08:37:07.088Z,2.30
2022-12-08T08:39:34.084Z,2.20
2022-12-08T08:42:01.010Z,2.20
2022-12-08T08:44:28.054Z,1.90
2022-12-08T08:46:55.786Z,1.90
2022-12-08T08:49:24.637Z,2.20
2022-12-08T08:51:51.690Z,2.30
2022-12-08T08:54:18.542Z,2.50
2022-12-08T08:56:45.641Z,2.40
2022-12-08T08:59:12.653Z,2.40
2022-12-08T09:01:39.981Z,2.20
2022-12-08T09:04:07.250Z,2.00
2022-12-08T09:06:34.338Z,1.90
2022-12-08T09:09:01.335Z,1.90
2022-12-08T09:11:28.242Z,2.20
2022-12-08T09:13:55.256Z,2.40
2022-12-08T09:16:22.908Z,2.40
2022-12-08T09:18:50.084Z,2.50
2022-12-08T09:21:22.601Z,2.60
2022-12-08T09:23:50.632Z,2.70
2022-12-08T09:26:17.627Z,2.80
2022-12-08T09:28:46.819Z,2.40
2022-12-08T09:31:14.709Z,2.40
2022-12-08T09:33:42.225Z,2.40
2022-12-08T09:36:09.686Z,2.30
2022-12-08T09:38:37.119Z,2.10
2022-12-08T09:41:35.980Z,2.20
2022-12-08T09:44:28.112Z,2.50
2022-12-08T09:46:56.181Z,2.60
2022-12-08T09:49:26.180Z,2.60
2022-12-08T09:51:53.249Z,2.50
2022-12-08T09:54:31.840Z,2.30
2022-12-08T09:57:01.264Z,2.20
2022-12-08T09:59:32.813Z,2.40
2022-12-08T10:02:00.223Z,2.60
2022-12-08T10:04:32.100Z,2.60
2022-12-08T10:07:05.309Z,2.50
2022-12-08T10:09:37.641Z,2.40
2022-12-08T10:12:04.688Z,2.20
2022-12-08T10:14:35.522Z,2.20
2022-12-08T10:17:11.971Z,2.10
2022-12-08T10:19:40.583Z,1.90
2022-12-08T10:22:24.288Z,1.90
2022-12-08T10:25:04.383Z,1.60
2022-12-08T10:27:33.438Z,1.40
2022-12-08T10:30:00.365Z,1.50
2022-12-08T10:32:33.869Z,1.80
2022-12-08T10:35:00.813Z,2.00
2022-12-08T10:37:27.695Z,2.10
2022-12-08T10:40:04.273Z,1.80
2022-12-08T10:42:37.830Z,1.80
2022-12-08T10:45:04.780Z,1.80
2022-12-08T10:47:36.089Z,2.00
2022-12-08T10:50:26.308Z,2.20
2022-12-08T10:52:56.305Z,2.10
2022-12-08T10:55:23.357Z,2.20
2022-12-08T10:57:50.745Z,2.40
2022-12-08T11:00:20.093Z,2.40
2022-12-08T11:02:53.404Z,2.40
2022-12-08T11:05:21.687Z,2.30
2022-12-08T11:07:52.865Z,2.30
2022-12-08T11:10:20.955Z,2.20
2022-12-08T11:12:49.325Z,2.30
2022-12-08T11:15:17.834Z,2.40
2022-12-08T11:17:49.356Z,2.50
2022-12-08T11:20:23.066Z,2.60
2022-12-08T11:22:54.311Z,2.60
2022-12-08T11:25:22.522Z,2.70
2022-12-08T11:27:50.762Z,2.60
2022-12-08T11:30:22.653Z,2.70
2022-12-08T11:33:09.902Z,2.70
2022-12-08T11:35:38.706Z,2.80
2022-12-08T11:38:23.218Z,2.80
2022-12-08T11:40:52.018Z,2.80
2022-12-08T11:43:19.654Z,2.70
2022-12-08T11:45:47.268Z,2.70
2022-12-08T11:48:14.203Z,2.80
2022-12-08T11:50:50.800Z,2.70
2022-12-08T11:53:36.224Z,2.70
2022-12-08T11:56:29.634Z,2.70
2022-12-08T11:58:57.519Z,2.80
2022-12-08T12:01:26.019Z,2.80
2022-12-08T12:06:55.415Z,2.70
2022-12-08T12:09:33.435Z,2.70
2022-12-08T12:12:17.602Z,2.80
2022-12-08T12:15:03.498Z,2.80
2022-12-08T12:17:41.810Z,2.70
2022-12-08T12:20:17.842Z,2.50
2022-12-08T12:22:46.839Z,2.50
2022-12-08T12:25:21.776Z,2.40
2022-12-08T12:27:50.112Z,2.40
2022-12-08T12:30:24.356Z,2.40
2022-12-08T12:32:59.224Z,2.60
2022-12-08T12:35:33.110Z,2.70
2022-12-08T12:38:25.891Z,2.80
2022-12-08T12:40:58.490Z,3.00
2022-12-08T12:43:28.952Z,3.00
2022-12-08T12:46:15.330Z,2.80
2022-12-08T12:48:42.345Z,2.90
2022-12-08T12:51:28.086Z,3.00
2022-12-08T13:03:33.921Z,2.90
2022-12-08T13:22:41.799Z,2.10
2022-12-08T13:42:41.880Z,1.80
2022-12-08T14:11:11.688Z,1.00
2022-12-08T14:33:27.827Z,1.70
2022-12-08T14:39:18.311Z,1.80
2022-12-08T14:46:38.621Z,2.00
2022-12-08T14:49:41.901Z,1.70
2022-12-08T14:53:33.428Z,1.30
2022-12-08T15:03:34.531Z,1.00
2022-12-08T15:09:41.344Z,0.90
2022-12-08T15:15:25.389Z,0.90
2022-12-08T15:18:16.718Z,1.10
2022-12-08T15:21:07.266Z,1.30
2022-12-08T15:23:53.835Z,1.30
2022-12-08T15:30:36.054Z,1.50
2022-12-08T15:36:41.475Z,1.60
2022-12-08T15:42:18.308Z,1.60
2022-12-08T15:44:45.769Z,1.60
2022-12-08T15:47:37.402Z,1.60
2022-12-08T15:50:36.578Z,1.40
2022-12-08T15:53:09.150Z,0.90
2022-12-08T15:59:59.030Z,-0.50
2022-12-08T16:03:18.380Z,-1.00
2022-12-08T16:09:17.509Z,-1.70
2022-12-08T16:12:10.848Z,-1.70
2022-12-08T16:17:26.273Z,-0.80
2022-12-08T16:19:53.594Z,-0.30
2022-12-08T16:25:18.125Z,0.20
2022-12-08T16:28:12.618Z,0.20
2022-12-08T16:30:33.621Z,0.10
2022-12-08T16:33:00.580Z,0.10
2022-12-08T16:35:27.553Z,0.00
2022-12-08T16:37:54.445Z,-0.10
2022-12-08T16:40:21.428Z,-0.10
2022-12-08T16:42:50.456Z,-0.20
2022-12-08T16:45:18.903Z,-0.10
2022-12-08T16:47:47.283Z,0.00
2022-12-08T16:50:16.093Z,0.10
2022-12-08T16:52:43.028Z,0.10
2022-12-08T16:55:14.435Z,0.20
2022-12-08T16:57:41.632Z,0.50
2022-12-08T17:00:10.213Z,0.20
2022-12-08T17:02:37.201Z,-0.20
2022-12-08T17:05:04.528Z,-0.30
2022-12-08T17:07:31.799Z,-0.30
2022-12-08T17:09:58.979Z,-0.40
2022-12-08T17:12:29.435Z,-0.30
2022-12-08T17:14:56.365Z,-0.20
2022-12-08T17:17:23.484Z,0.00
2022-12-08T17:19:50.507Z,0.20
2022-12-08T17:22:17.421Z,0.20
2022-12-08T17:24:44.398Z,0.20
2022-12-08T17:27:11.537Z,0.10
2022-12-08T17:29:38.448Z,-0.10
2022-12-08T17:32:05.656Z,-0.20
2022-12-08T17:34:32.634Z,-0.10
2022-12-08T17:36:59.622Z,0.00
2022-12-08T17:39:27.086Z,0.00
2022-12-08T17:41:54.059Z,0.00
2022-12-08T17:44:21.100Z,-0.10
2022-12-08T17:46:52.438Z,-0.10
2022-12-08T17:49:22.021Z,0.00
2022-12-08T17:51:50.150Z,0.10
2022-12-08T17:54:17.680Z,0.20
2022-12-08T17:56:44.937Z,0.10
2022-12-08T17:59:12.482Z,0.10
2022-12-08T18:01:40.134Z,0.20
2022-12-08T18:04:08.763Z,0.20
2022-12-08T18:06:36.679Z,0.30
2022-12-08T18:09:04.052Z,0.40
2022-12-08T18:11:31.155Z,0.60
2022-12-08T18:13:58.148Z,0.60
2022-12-08T18:16:25.874Z,0.20
2022-12-08T18:18:53.243Z,0.10
2022-12-08T18:21:23.499Z,0.00
2022-12-08T18:23:51.192Z,0.00
2022-12-08T18:26:18.752Z,0.00
2022-12-08T18:28:45.736Z,-0.10
2022-12-08T18:31:14.025Z,-0.10
2022-12-08T18:33:41.557Z,0.10
2022-12-08T18:36:09.714Z,0.00
2022-12-08T18:38:37.043Z,0.10
2022-12-08T18:41:05.008Z,0.00
2022-12-08T18:43:31.972Z,0.10
2022-12-08T18:46:07.719Z,0.10
2022-12-08T18:48:35.875Z,0.10
2022-12-08T18:51:03.620Z,0.10
2022-12-08T18:53:31.682Z,0.20
2022-12-08T18:55:58.630Z,0.20
2022-12-08T18:58:25.563Z,0.30
2022-12-08T19:00:52.478Z,0.30
2022-12-08T19:03:19.325Z,0.40
2022-12-08T19:05:46.232Z,0.40
2022-12-08T19:08:13.188Z,0.40
2022-12-08T19:10:40.115Z,0.40
2022-12-08T19:13:07.359Z,0.40
2022-12-08T19:15:34.869Z,0.40
2022-12-08T19:18:01.950Z,0.30
2022-12-08T19:20:29.121Z,0.30
2022-12-08T19:22:56.167Z,0.40
2022-12-08T19:25:23.803Z,0.10
2022-12-08T19:27:50.716Z,-0.10
2022-12-08T19:30:17.889Z,-0.40
2022-12-08T19:32:45.011Z,-0.60
2022-12-08T19:35:12.127Z,-0.80
2022-12-08T19:37:39.046Z,-0.80
2022-12-08T19:40:24.695Z,-0.70
2022-12-08T19:43:10.477Z,-0.60
2022-12-08T19:45:38.360Z,-0.50
2022-12-08T19:48:05.405Z,-0.40
2022-12-08T19:50:38.549Z,-0.30
2022-12-08T19:53:10.248Z,-0.20
2022-12-08T19:55:37.250Z,-0.20
2022-12-08T19:58:04.930Z,-0.20
2022-12-08T20:00:32.325Z,-0.30
2022-12-08T20:02:59.998Z,-0.30
2022-12-08T20:05:27.056Z,-0.30
2022-12-08T20:07:55.858Z,-0.30
2022-12-08T20:10:28.292Z,-0.20
2022-12-08T20:13:15.866Z,-0.20
2022-12-08T20:15:43.382Z,-0.30
2022-12-08T20:18:10.823Z,-0.30
2022-12-08T20:20:37.866Z,-0.40
2022-12-08T20:23:04.856Z,-0.30
2022-12-08T20:25:31.804Z,-0.30
2022-12-08T20:27:58.943Z,-0.20
2022-12-08T20:30:25.983Z,-0.20
2022-12-08T20:32:52.934Z,-0.10
2022-12-08T20:35:19.840Z,-0.10
2022-12-08T20:37:46.801Z,0.00
2022-12-08T20:40:13.945Z,0.10
2022-12-08T20:42:40.895Z,0.20
2022-12-08T20:45:09.658Z,0.20
2022-12-08T20:47:37.290Z,0.20
2022-12-08T20:50:05.318Z,0.30
2022-12-08T20:52:32.858Z,0.30
2022-12-08T20:54:59.878Z,0.20
2022-12-08T20:57:27.166Z,0.20
2022-12-08T20:59:54.237Z,0.20
2022-12-08T21:02:21.485Z,0.20
2022-12-08T21:04:48.887Z,0.20
2022-12-08T21:07:16.078Z,0.20
2022-12-08T21:09:43.261Z,0.10
2022-12-08T21:12:10.229Z,0.00
2022-12-08T21:14:37.374Z,0.00
2022-12-08T21:17:04.846Z,0.00
2022-12-08T21:19:31.881Z,0.10
2022-12-08T21:21:58.925Z,0.10
2022-12-08T21:24:31.988Z,0.00
2022-12-08T21:27:00.856Z,0.00
2022-12-08T21:29:27.829Z,-0.10
2022-12-08T21:31:57.324Z,-0.30
2022-12-08T21:34:25.232Z,-0.40
2022-12-08T21:36:53.199Z,-0.60
2022-12-08T21:39:20.181Z,-0.70
2022-12-08T21:42:05.939Z,-0.80
2022-12-08T21:44:35.678Z,-0.80
2022-12-08T21:47:06.032Z,-0.70
2022-12-08T21:49:33.348Z,-0.70
2022-12-08T21:52:00.315Z,-0.60
2022-12-08T21:54:27.495Z,-0.60
2022-12-08T21:56:54.418Z,-0.60
2022-12-08T21:59:21.331Z,-0.60
2022-12-08T22:01:48.651Z,-0.60
2022-12-08T22:04:17.089Z,-0.50
2022-12-08T22:06:44.510Z,-0.50
2022-12-08T22:09:13.687Z,-0.40
2022-12-08T22:11:41.459Z,-0.30
2022-12-08T22:14:14.172Z,-0.40
2022-12-08T22:16:42.250Z,-0.60
2022-12-08T22:19:09.490Z,-0.80
2022-12-08T22:21:38.208Z,-0.80
2022-12-08T22:24:05.697Z,-0.90
2022-12-08T22:26:33.066Z,-0.80
2022-12-08T22:29:00.518Z,-0.70
2022-12-08T22:31:28.034Z,-0.60
2022-12-08T22:33:55.164Z,-0.40
2022-12-08T22:36:23.465Z,-0.20
2022-12-08T22:38:50.669Z,-0.30
2022-12-08T22:41:18.232Z,-0.50
2022-12-08T22:43:45.953Z,-0.80
2022-12-08T22:46:14.450Z,-1.20
2022-12-08T22:48:41.933Z,-1.40
2022-12-08T22:51:09.474Z,-1.50
2022-12-08T22:53:36.700Z,-1.30
2022-12-08T22:56:07.650Z,-1.40
2022-12-08T22:58:34.840Z,-1.30
2022-12-08T23:01:02.117Z,-1.20
2022-12-08T23:03:29.469Z,-1.20
2022-12-08T23:05:57.416Z,-1.20
2022-12-08T23:08:24.795Z,-1.30
2022-12-08T23:10:52.778Z,-1.30
2022-12-08T23:13:20.201Z,-1.30
2022-12-08T23:15:47.279Z,-1.20
2022-12-08T23:18:15.187Z,-1.30
2022-12-08T23:20:42.265Z,-1.30
2022-12-08T23:23:09.220Z,-1.10
2022-12-08T23:25:39.459Z,-1.10
2022-12-08T23:28:06.604Z,-1.10
2022-12-08T23:30:33.604Z,-1.00
2022-12-08T23:33:00.603Z,-0.90
2022-12-08T23:35:27.836Z,-0.80
2022-12-08T23:37:54.786Z,-0.80
2022-12-08T23:40:22.061Z,-0.70
2022-12-08T23:42:49.261Z,-0.70
2022-12-08T23:45:16.729Z,-0.70
2022-12-08T23:47:43.723Z,-0.70
2022-12-08T23:50:11.450Z,-0.80
2022-12-08T23:52:39.934Z,-0.70
2022-12-08T23:55:07.924Z,-0.60
2022-12-08T23:57:35.626Z,-0.60
